Athens, Greece
Current Conditions -  °F | °C
As of 3:20 AM on Saturday 22 Nov 2014 (Local Time) from LGEL Reporting Station
Few Clouds Few Clouds  
Wind Chill: 50°   Ceiling: Unl
Heat Index: 50°   Visibility: 6mi
Dew Point: 39°   Wind: 0mph
Humidity: 66%   Direction: NA
Pressure: 30.15"   Gusts: NA
Location:  37.98°N, 23.73°E
Report Text: LGEL 220020Z 00000KT 9999 FEW030 10/04 Q1021
Loading
Personal Weather Stations






























Interactive Weather Map New forecast layout! Learn more

10-Day Weather Forecast

Advertisements
Track Severe Weather on mobile